Airfield :
LOGIN :

Register | Disclaimer

   EN    FR    IT 

 










Legend :    VFR   Marginal VFR   IFR   Intensive IFR   Very Intensive IFR
Visi :
Ceiling :
>= 8 km
>= 3000ft
5 to 8 km
1000 to 3000 ft
1500m to 5 km
500 to 1000 ft
800 to 1500m
200 to 500 ft
< 800m
< 200 ft
Symbols :   Thunderstorms  Fog  Heavy snow  Heavy precipitations  Wind > 20 kt
SIGMETs :     Misc.  Thunderstorms  Icing  Turbulence  Mountain Waves  Volcanic Ashes






- Airport Elevation : 74 ft
- IATA code : LRH


LFBH - La Rochelle Ile de Ré

CURRENT METAR :
  • 262330Z AUTO 17013KT 3900 -DZ BR BKN009 OVC022 05/05 Q1018 TEMPO 1500 DZ OVC003

EXPIRED METARs :
  • 262300Z AUTO 16013KT 7000 -RA OVC011 05/04 Q1018 TEMPO 1200 DZ OVC001
  • 262230Z AUTO 16014KT 9000 -RA OVC012 06/03 Q1018 TEMPO 1200 DZ OVC001
  • 262200Z AUTO 16013KT 9999 OVC014 06/02 Q1018 BECMG 2500 -RADZ BKN006
  • 262130Z AUTO 16014KT 9999 OVC017 06/02 Q1018 BECMG 2500 -RADZ BKN006

TAF TAF LFBH
Valid from the 27 at 00:00 until the 28 at 00:00 UTC


262300Z 2700/2724 18012KT 8000 OVC008
BECMG 2700/2702 22005KT
PROB40 2700/2708 1500 DZ OVC003
PROB30
TEMPO 2708/2712 BKN010
PROB40 2712/2718 2000 RADZ OVC002
TEMPO 2718/2722 OVC003
TEMPO 2722/2724 26015G25KT
ATIS : +33 5 46 00 13 92



MET'MAP, your aeronautical weather chart ! - Copyright ORBIFLY December 2007 - Disclaimer

ORBIFLY MET'MAP TEAM :

Programming & Development : Alexandra Zaïnal
Concept & original design : Baudouin d'Aumeries
Assistance for programming : Marc-Olivier Méhu
Technical & hardware support : Manuel Goepfert

Contact : metmap@orbifly.com




SOURCES & CREDITS :

   NOAA